Main page
METAR-TAF:

METAR-TAF

Airports :

Chièvres Air Base

Chièvres, Belgium

latitude: 50-34N, longitude: 003-50E, elevation: 60 m

Current weather observation

The report was made 5 hours and 28 minutes ago, at 11:25 UTC
Wind 4 kt from the South
Temperature 2°C
Humidity 100%
Pressure 1022 hPa
Visibility: 0400 m
fog

METAR: EBCV 251125Z AUTO 18004KT 0400 FG OVC002/// 02/02 Q1022 RED

Time: 17:53 (16:53 UTC)

Forecast

The report was made 7 minutes ago, at 16:46 UTC
Forecast valid from 24 at 19 UTC to 25 at 07 UTC
Wind 3 kt from variable directions
Visibility: 3000 m
Overcast at a height of 1000 ft
mist
Becoming
from 25 at 00 UTC to 25 at 02 UTC
Visibility: 1200 m
Overcast at a height of 400 ft
mist
Temporary
from 25 at 00 UTC to 25 at 07 UTC
Visibility: 0600 m
Overcast at a height of 200 ft
fog, freezing fog

TAF: EBCV 241646Z 2419/2507 VRB03KT 3000 BR OVC010 BECMG 2500/2502 1200 BR OVC004 TEMPO 2500/2507 0600 FG FZFG OVC002 BY EBWM

Weather observations and forecasts of more than 4000 airports (METAR and TAF reports).

The available stations are represented by yellow and red dots on the map.

Hover mouse over dot to see the name of the station.

Then click to see weather observations and forecasts.

To change the map : click on the green buttons with a black cross to zoom in, on the green button with a dash to zoom out, or on the green arrows for adjacent maps.


METAR-TAF: